createdAt,value
2018-06-17T00:02:25.926Z,16.10
2018-06-17T00:04:55.076Z,15.47
2018-06-17T00:07:24.493Z,15.70
2018-06-17T00:09:54.211Z,15.20
2018-06-17T00:12:23.818Z,15.30
2018-06-17T00:14:53.469Z,13.70
2018-06-17T00:17:23.011Z,12.93
2018-06-17T00:19:52.551Z,14.30
2018-06-17T00:22:22.230Z,13.20
2018-06-17T00:24:51.736Z,14.17
2018-06-17T00:27:21.195Z,13.40
2018-06-17T00:29:51.046Z,14.53
2018-06-17T00:32:21.682Z,14.63
2018-06-17T00:34:51.230Z,13.60
2018-06-17T00:37:20.735Z,14.53
2018-06-17T00:39:49.845Z,14.00
2018-06-17T00:42:19.261Z,15.00
2018-06-17T00:44:48.739Z,12.90
2018-06-17T00:47:18.393Z,13.30
2018-06-17T00:49:47.845Z,12.97
2018-06-17T00:52:17.399Z,13.03
2018-06-17T00:54:47.026Z,13.00
2018-06-17T00:57:27.494Z,13.37
2018-06-17T00:59:56.986Z,13.03
2018-06-17T01:02:27.049Z,11.63
2018-06-17T01:04:56.649Z,12.13
2018-06-17T01:07:26.286Z,11.20
2018-06-17T01:09:56.035Z,10.00
2018-06-17T01:12:25.650Z,9.93
2018-06-17T01:14:55.345Z,10.50
2018-06-17T01:17:24.857Z,10.40
2018-06-17T01:19:54.519Z,10.40
2018-06-17T01:22:24.225Z,10.30
2018-06-17T01:24:54.005Z,10.47
2018-06-17T01:29:59.614Z,10.00
2018-06-17T01:32:30.022Z,10.70
2018-06-17T01:34:59.726Z,9.80
2018-06-17T01:37:29.197Z,10.57
2018-06-17T01:39:58.677Z,10.43
2018-06-17T01:42:28.168Z,10.53
2018-06-17T01:44:57.604Z,9.60
2018-06-17T01:47:27.367Z,10.50
2018-06-17T01:49:56.543Z,11.07
2018-06-17T01:52:26.036Z,9.80
2018-06-17T01:54:55.597Z,10.83
2018-06-17T01:57:25.128Z,10.27
2018-06-17T01:59:54.634Z,10.93
2018-06-17T02:02:24.182Z,10.57
2018-06-17T02:04:58.946Z,11.30
2018-06-17T02:07:33.827Z,11.20
2018-06-17T02:10:08.702Z,10.83
2018-06-17T02:12:38.353Z,11.20
2018-06-17T02:15:08.164Z,11.53
2018-06-17T02:17:37.854Z,11.10
2018-06-17T02:20:07.508Z,12.40
2018-06-17T02:22:37.094Z,11.47
2018-06-17T02:25:06.842Z,11.03
2018-06-17T02:27:36.150Z,11.60
2018-06-17T02:30:06.167Z,11.20
2018-06-17T02:32:35.731Z,10.93
2018-06-17T02:35:05.597Z,11.60
2018-06-17T02:37:35.236Z,11.70
2018-06-17T02:40:04.967Z,11.30
2018-06-17T02:42:34.574Z,10.67
2018-06-17T02:45:09.464Z,10.47
2018-06-17T02:47:44.364Z,10.33
2018-06-17T02:50:19.032Z,10.27
2018-06-17T02:54:57.278Z,10.30
2018-06-17T02:57:26.941Z,10.40
2018-06-17T02:59:56.543Z,10.50
2018-06-17T03:02:25.789Z,9.67
2018-06-17T03:04:55.206Z,11.10
2018-06-17T03:07:24.752Z,9.50
2018-06-17T03:09:54.325Z,10.93
2018-06-17T03:12:23.898Z,10.60
2018-06-17T03:14:53.455Z,10.07
2018-06-17T03:17:22.581Z,10.10
2018-06-17T03:19:51.575Z,10.67
2018-06-17T03:22:21.013Z,10.77
2018-06-17T03:24:55.760Z,9.70
2018-06-17T03:27:30.837Z,10.37
2018-06-17T03:30:05.424Z,10.00
2018-06-17T03:32:40.142Z,10.50
2018-06-17T03:35:15.076Z,11.10
2018-06-17T03:37:44.793Z,10.53
2018-06-17T03:40:14.435Z,10.00
2018-06-17T03:42:43.986Z,11.30
2018-06-17T03:45:13.587Z,10.90
2018-06-17T03:47:43.081Z,10.50
2018-06-17T03:50:12.710Z,9.93
2018-06-17T03:52:42.204Z,10.07
2018-06-17T03:55:11.864Z,9.93
2018-06-17T03:57:41.075Z,10.20
2018-06-17T04:00:10.661Z,9.77
2018-06-17T04:02:40.340Z,10.30
2018-06-17T04:05:15.034Z,9.90
2018-06-17T04:07:44.624Z,9.50
2018-06-17T04:10:14.294Z,9.57
2018-06-17T04:12:43.851Z,9.77
2018-06-17T04:15:13.405Z,9.50
2018-06-17T04:17:42.968Z,9.83
2018-06-17T04:20:12.688Z,10.33
2018-06-17T04:22:42.205Z,9.60
2018-06-17T04:25:11.683Z,11.00
2018-06-17T04:27:41.198Z,9.03
2018-06-17T04:30:10.750Z,8.67
2018-06-17T04:32:40.277Z,8.97
2018-06-17T04:35:09.900Z,9.43
2018-06-17T04:37:39.515Z,9.77
2018-06-17T04:40:08.776Z,9.10
2018-06-17T04:42:38.251Z,9.23
2018-06-17T04:45:07.845Z,10.30
2018-06-17T04:47:37.426Z,10.03
2018-06-17T04:50:06.549Z,9.27
2018-06-17T04:52:35.474Z,8.70
2018-06-17T04:55:04.804Z,8.70
2018-06-17T04:57:34.350Z,8.93
2018-06-17T05:00:03.985Z,8.90
2018-06-17T05:02:33.487Z,9.00
2018-06-17T05:05:04.639Z,8.87
2018-06-17T05:07:34.214Z,8.77
2018-06-17T05:10:06.708Z,9.20
2018-06-17T05:12:36.210Z,9.10
2018-06-17T05:15:05.984Z,9.37
2018-06-17T05:17:35.507Z,8.77
2018-06-17T05:20:05.150Z,9.00
2018-06-17T05:22:34.645Z,8.60
2018-06-17T05:25:04.722Z,8.40
2018-06-17T05:27:33.930Z,7.67
2018-06-17T05:30:03.903Z,9.43
2018-06-17T05:32:33.447Z,9.10
2018-06-17T05:35:02.745Z,8.33
2018-06-17T05:37:32.086Z,8.60
2018-06-17T05:40:02.096Z,7.73
2018-06-17T05:42:32.548Z,7.70
2018-06-17T05:45:04.469Z,8.07
2018-06-17T05:47:34.031Z,8.20
2018-06-17T05:50:05.780Z,7.80
2018-06-17T05:52:35.335Z,8.67
2018-06-17T05:55:04.837Z,8.03
2018-06-17T05:57:34.419Z,7.90
2018-06-17T06:00:04.159Z,7.60
2018-06-17T06:02:33.712Z,7.97
2018-06-17T06:05:06.552Z,7.93
2018-06-17T06:07:36.271Z,7.00
2018-06-17T06:10:07.989Z,8.13
2018-06-17T06:12:37.608Z,7.40
2018-06-17T06:15:06.758Z,7.90
2018-06-17T06:17:36.155Z,7.73
2018-06-17T06:20:08.123Z,7.87
2018-06-17T06:22:37.781Z,8.30
2018-06-17T06:25:07.789Z,7.43
2018-06-17T06:27:37.649Z,6.23
2018-06-17T06:30:07.260Z,8.07
2018-06-17T06:32:37.099Z,7.23
2018-06-17T06:35:06.650Z,7.57
2018-06-17T06:37:36.493Z,7.20
2018-06-17T06:40:06.140Z,7.20
2018-06-17T06:42:35.645Z,7.47
2018-06-17T06:45:05.255Z,7.70
2018-06-17T06:47:34.374Z,6.57
2018-06-17T06:50:03.822Z,7.37
2018-06-17T06:52:33.352Z,6.97
2018-06-17T06:55:04.858Z,6.50
2018-06-17T06:57:34.483Z,8.00
2018-06-17T07:00:05.224Z,7.90
2018-06-17T07:02:46.226Z,6.80
2018-06-17T07:05:26.731Z,7.83
2018-06-17T07:08:01.346Z,8.70
2018-06-17T07:10:30.855Z,7.30
2018-06-17T07:13:00.464Z,7.93
2018-06-17T07:15:36.357Z,8.33
2018-06-17T07:18:16.793Z,7.77
2018-06-17T07:20:46.367Z,8.80
2018-06-17T07:23:15.660Z,8.43
2018-06-17T07:26:54.440Z,7.73
2018-06-17T07:29:38.790Z,9.03
2018-06-17T07:32:08.102Z,8.13
2018-06-17T07:34:37.311Z,7.80
2018-06-17T07:37:06.641Z,7.97
2018-06-17T07:40:18.847Z,8.30
2018-06-17T07:42:49.557Z,8.47
2018-06-17T07:45:18.855Z,8.40
2018-06-17T07:47:48.133Z,8.60
2018-06-17T07:50:22.714Z,9.83
2018-06-17T07:53:28.755Z,9.37
2018-06-17T07:55:58.154Z,8.40
2018-06-17T07:58:27.043Z,9.10
2018-06-17T08:00:56.241Z,7.57
2018-06-17T08:03:25.506Z,8.00
2018-06-17T08:05:55.848Z,7.97
2018-06-17T08:08:25.199Z,7.87
2018-06-17T08:10:55.997Z,8.20
2018-06-17T08:13:26.007Z,8.53
2018-06-17T08:15:55.351Z,9.40
2018-06-17T08:18:25.028Z,7.40
2018-06-17T08:20:54.548Z,9.20
2018-06-17T08:23:24.034Z,8.70
2018-06-17T08:25:53.503Z,8.90
2018-06-17T08:28:23.016Z,9.47
2018-06-17T08:30:52.259Z,9.10
2018-06-17T08:33:21.449Z,9.60
2018-06-17T08:35:50.732Z,9.27
2018-06-17T08:38:20.052Z,8.43
2018-06-17T08:40:49.291Z,10.13
2018-06-17T08:43:18.603Z,9.63
2018-06-17T08:45:47.886Z,9.40
2018-06-17T08:48:17.169Z,9.10
2018-06-17T08:50:46.463Z,8.97
2018-06-17T08:53:15.815Z,9.97
2018-06-17T08:55:45.217Z,9.40
2018-06-17T08:58:14.272Z,9.60
2018-06-17T09:00:43.752Z,10.73
2018-06-17T09:03:13.267Z,9.70
2018-06-17T09:05:42.662Z,9.83
2018-06-17T09:08:12.004Z,10.90
2018-06-17T09:10:41.489Z,11.50
2018-06-17T09:13:10.984Z,10.00
2018-06-17T09:15:40.414Z,10.90
2018-06-17T09:18:10.126Z,10.87
2018-06-17T09:20:39.085Z,9.73
2018-06-17T09:23:08.350Z,10.40
2018-06-17T09:25:37.364Z,11.10
2018-06-17T09:28:06.734Z,10.10
2018-06-17T09:30:36.211Z,9.67
2018-06-17T09:33:05.622Z,10.30
2018-06-17T09:35:34.903Z,9.90
2018-06-17T09:38:04.307Z,11.27
2018-06-17T09:40:33.684Z,9.57
2018-06-17T09:43:02.980Z,10.10
2018-06-17T09:45:32.293Z,9.30
2018-06-17T09:48:01.693Z,9.33
2018-06-17T09:50:31.025Z,9.30
2018-06-17T09:53:00.503Z,9.60
2018-06-17T09:55:29.816Z,8.43
2018-06-17T09:57:59.198Z,9.40
2018-06-17T10:00:28.550Z,8.13
2018-06-17T10:02:58.036Z,9.90
2018-06-17T10:05:27.319Z,8.87
2018-06-17T10:07:56.793Z,8.57
2018-06-17T10:10:59.315Z,8.90
2018-06-17T10:13:32.320Z,8.30
2018-06-17T10:16:03.376Z,8.43
2018-06-17T10:18:33.300Z,7.70
2018-06-17T10:21:03.145Z,7.93
2018-06-17T10:23:32.871Z,7.87
2018-06-17T10:26:02.630Z,7.60
2018-06-17T10:28:33.057Z,7.40
2018-06-17T10:31:04.217Z,7.00
2018-06-17T10:33:34.285Z,6.80
2018-06-17T10:36:04.028Z,6.90
2018-06-17T10:38:33.963Z,6.63
2018-06-17T10:41:03.856Z,7.17
2018-06-17T10:43:33.903Z,7.40
2018-06-17T10:46:03.115Z,7.50
2018-06-17T10:48:32.562Z,8.70
2018-06-17T10:51:05.925Z,8.00
2018-06-17T10:53:35.664Z,7.23
2018-06-17T10:56:05.032Z,8.97
2018-06-17T10:58:34.568Z,8.27
2018-06-17T11:01:07.556Z,7.60
2018-06-17T11:03:38.530Z,8.80
2018-06-17T11:06:08.146Z,9.17
2018-06-17T11:08:38.820Z,8.37
2018-06-17T11:11:10.399Z,8.40
2018-06-17T11:13:40.272Z,7.87
2018-06-17T11:16:09.973Z,8.77
2018-06-17T11:18:39.514Z,9.30
2018-06-17T11:21:09.583Z,8.93
2018-06-17T11:23:38.987Z,8.60
2018-06-17T11:26:08.116Z,7.87
2018-06-17T11:28:37.710Z,9.47
2018-06-17T11:31:07.457Z,9.00
2018-06-17T11:33:38.523Z,8.70
2018-06-17T11:36:08.378Z,8.43
2018-06-17T11:38:38.058Z,7.60
2018-06-17T11:41:07.686Z,8.20
2018-06-17T11:43:37.347Z,7.57
2018-06-17T11:46:07.124Z,6.40
2018-06-17T11:48:36.857Z,7.40
2018-06-17T11:51:07.101Z,7.30
2018-06-17T11:53:36.716Z,7.30
2018-06-17T11:56:06.526Z,8.43
2018-06-17T11:58:36.272Z,7.27
2018-06-17T12:01:06.472Z,8.30
2018-06-17T12:03:36.905Z,6.90
2018-06-17T12:06:06.826Z,7.20
2018-06-17T12:08:36.278Z,7.17
2018-06-17T12:11:07.290Z,7.23
2018-06-17T12:13:37.053Z,7.17
2018-06-17T12:16:07.527Z,8.13
2018-06-17T12:18:37.744Z,7.03
2018-06-17T12:21:07.546Z,7.30
2018-06-17T12:23:37.378Z,7.50
2018-06-17T12:26:07.162Z,7.03
2018-06-17T12:28:37.888Z,16.50
2018-06-17T12:31:07.937Z,7.60
2018-06-17T12:33:37.685Z,6.97
2018-06-17T12:36:09.239Z,7.87
2018-06-17T12:38:39.130Z,8.30
2018-06-17T12:41:08.441Z,7.87
2018-06-17T12:43:38.218Z,8.23
2018-06-17T12:46:08.067Z,7.63
2018-06-17T12:48:38.001Z,7.73
2018-06-17T12:51:10.474Z,7.47
2018-06-17T12:53:40.122Z,7.90
2018-06-17T12:56:09.769Z,7.20
2018-06-17T12:58:39.505Z,7.53
2018-06-17T13:01:09.131Z,7.33
2018-06-17T13:03:38.791Z,7.67
2018-06-17T13:06:08.701Z,9.03
2018-06-17T13:08:38.406Z,8.70
2018-06-17T13:11:07.887Z,8.50
2018-06-17T13:13:38.353Z,7.40
2018-06-17T13:16:08.044Z,8.03
2018-06-17T13:18:37.616Z,8.40
2018-06-17T13:21:07.173Z,8.63
2018-06-17T13:23:37.142Z,7.80
2018-06-17T13:26:06.945Z,7.53
2018-06-17T13:28:36.948Z,8.50
2018-06-17T13:31:06.421Z,8.53
2018-06-17T13:33:36.062Z,7.30
2018-06-17T13:36:05.231Z,8.90
2018-06-17T13:38:34.869Z,8.50
2018-06-17T13:41:04.806Z,8.97
2018-06-17T13:43:34.468Z,8.10
2018-06-17T13:46:05.863Z,7.13
2018-06-17T13:48:35.370Z,7.30
2018-06-17T13:51:06.262Z,9.17
2018-06-17T13:53:36.357Z,7.03
2018-06-17T13:56:06.512Z,6.63
2018-06-17T13:58:36.148Z,6.13
2018-06-17T14:01:05.890Z,6.70
2018-06-17T14:03:35.560Z,6.87
2018-06-17T14:06:06.018Z,7.20
2018-06-17T14:08:35.783Z,6.70
2018-06-17T14:11:07.080Z,6.90
2018-06-17T14:13:36.927Z,6.43
2018-06-17T14:16:07.326Z,6.90
2018-06-17T14:18:37.281Z,5.60
2018-06-17T14:21:06.877Z,6.17
2018-06-17T14:23:36.441Z,6.80
2018-06-17T14:26:06.037Z,6.20
2018-06-17T14:28:35.625Z,6.40
2018-06-17T14:31:04.955Z,6.57
2018-06-17T14:33:34.394Z,6.90
2018-06-17T14:36:04.393Z,6.73
2018-06-17T14:38:34.012Z,6.30
2018-06-17T14:41:10.263Z,6.40
2018-06-17T14:43:44.862Z,6.20
2018-06-17T14:46:19.663Z,6.70
2018-06-17T14:48:54.143Z,6.47
2018-06-17T14:51:28.702Z,6.87
2018-06-17T14:53:58.393Z,6.67
2018-06-17T14:56:28.453Z,6.37
2018-06-17T14:58:58.151Z,7.20
2018-06-17T15:01:27.760Z,6.47
2018-06-17T15:03:57.506Z,7.00
2018-06-17T15:06:27.007Z,6.77
2018-06-17T15:08:56.604Z,5.83
2018-06-17T15:11:26.394Z,6.43
2018-06-17T15:13:55.550Z,8.73
2018-06-17T15:16:25.256Z,6.60
2018-06-17T15:18:55.052Z,6.60
2018-06-17T15:21:24.659Z,6.20
2018-06-17T15:23:54.194Z,6.80
2018-06-17T15:26:23.790Z,6.17
2018-06-17T15:28:53.251Z,6.63
2018-06-17T15:31:28.173Z,6.87
2018-06-17T15:34:02.942Z,6.57
2018-06-17T15:36:38.055Z,5.80
2018-06-17T15:39:13.286Z,7.80
2018-06-17T15:41:42.963Z,6.00
2018-06-17T15:44:12.683Z,6.37
2018-06-17T15:46:42.837Z,5.53
2018-06-17T15:49:12.571Z,6.17
2018-06-17T15:51:42.077Z,5.83
2018-06-17T15:54:11.588Z,6.10
2018-06-17T15:56:41.095Z,5.30
2018-06-17T15:59:10.903Z,5.90
2018-06-17T16:01:41.577Z,5.50
2018-06-17T16:04:11.335Z,5.60
2018-06-17T16:06:41.009Z,5.27
2018-06-17T16:09:12.261Z,5.10
2018-06-17T16:11:46.938Z,5.20
2018-06-17T16:14:21.815Z,6.20
2018-06-17T16:16:56.626Z,6.60
2018-06-17T16:19:31.489Z,5.80
2018-06-17T16:22:00.936Z,4.80
2018-06-17T16:24:30.522Z,5.50
2018-06-17T16:27:00.113Z,5.37
2018-06-17T16:29:29.688Z,5.43
2018-06-17T16:31:59.359Z,4.77
2018-06-17T16:34:28.989Z,5.70
2018-06-17T16:36:58.697Z,5.13
2018-06-17T16:39:28.320Z,5.13
2018-06-17T16:41:58.020Z,4.90
2018-06-17T16:44:27.674Z,4.73
2018-06-17T16:46:57.300Z,4.73
2018-06-17T16:49:26.919Z,4.87
2018-06-17T16:52:01.870Z,5.47
2018-06-17T16:54:36.844Z,5.40
2018-06-17T16:57:11.702Z,5.00
2018-06-17T16:59:46.507Z,4.90
2018-06-17T17:02:15.813Z,4.63
2018-06-17T17:04:45.454Z,4.93
2018-06-17T17:07:15.088Z,5.30
2018-06-17T17:09:44.645Z,4.50
2018-06-17T17:12:14.232Z,5.23
2018-06-17T17:14:43.549Z,5.43
2018-06-17T17:17:13.025Z,5.30
2018-06-17T17:19:42.325Z,5.57
2018-06-17T17:22:13.149Z,7.27
2018-06-17T17:24:42.848Z,5.83
2018-06-17T17:27:12.668Z,5.50
2018-06-17T17:29:42.308Z,5.67
2018-06-17T17:32:17.438Z,5.20
2018-06-17T17:34:52.280Z,5.33
2018-06-17T17:37:27.135Z,6.10
2018-06-17T17:40:01.893Z,7.03
2018-06-17T17:42:31.696Z,6.33
2018-06-17T17:45:06.444Z,5.80
2018-06-17T17:47:36.251Z,6.07
2018-06-17T17:50:06.137Z,6.57
2018-06-17T17:52:35.755Z,6.70
2018-06-17T17:55:06.470Z,6.33
2018-06-17T17:57:36.013Z,9.33
2018-06-17T18:00:05.828Z,7.87
2018-06-17T18:02:35.468Z,6.70
2018-06-17T18:05:05.282Z,6.20
2018-06-17T18:07:34.702Z,6.80
2018-06-17T18:10:05.948Z,6.30
2018-06-17T18:12:35.412Z,7.10
2018-06-17T18:15:07.090Z,7.00
2018-06-17T18:17:36.603Z,6.93
2018-06-17T18:20:06.562Z,9.60
2018-06-17T18:22:36.144Z,9.07
2018-06-17T18:25:11.880Z,10.23
2018-06-17T18:27:46.572Z,10.10
2018-06-17T18:30:21.492Z,12.50
2018-06-17T18:32:56.428Z,9.20
2018-06-17T18:35:31.591Z,8.03
2018-06-17T18:38:00.795Z,8.10
2018-06-17T18:40:31.320Z,9.50
2018-06-17T18:43:00.483Z,10.37
2018-06-17T18:45:32.173Z,9.90
2018-06-17T18:48:01.786Z,10.30
2018-06-17T18:50:31.454Z,10.70
2018-06-17T18:53:01.630Z,11.43
2018-06-17T18:55:32.240Z,11.83
2018-06-17T18:58:01.875Z,12.40
2018-06-17T19:00:31.550Z,11.70
2018-06-17T19:03:00.765Z,12.20
2018-06-17T19:05:30.320Z,11.83
2018-06-17T19:08:00.121Z,12.40
2018-06-17T19:10:35.060Z,11.00
2018-06-17T19:13:10.812Z,13.20
2018-06-17T19:15:45.855Z,14.40
2018-06-17T19:18:15.772Z,13.47
2018-06-17T19:20:45.718Z,14.70
2018-06-17T19:23:15.484Z,13.23
2018-06-17T19:25:45.084Z,13.80
2018-06-17T19:28:14.753Z,13.33
2018-06-17T19:30:44.243Z,15.43
2018-06-17T19:33:14.008Z,13.53
2018-06-17T19:35:43.693Z,13.30
2018-06-17T19:38:13.369Z,13.70
2018-06-17T19:40:42.789Z,14.37
2018-06-17T19:43:12.643Z,14.60
2018-06-17T19:45:42.785Z,14.10
2018-06-17T19:48:12.727Z,14.97
2018-06-17T19:50:47.722Z,15.30
2018-06-17T19:53:22.687Z,14.77
2018-06-17T19:55:57.548Z,16.00
2018-06-17T19:58:32.431Z,15.70
2018-06-17T20:01:04.166Z,13.80
2018-06-17T20:03:33.704Z,14.57
2018-06-17T20:06:03.520Z,15.10
2018-06-17T20:08:33.224Z,13.73
2018-06-17T20:11:02.521Z,14.40
2018-06-17T20:13:32.107Z,13.70
2018-06-17T20:16:01.641Z,14.73
2018-06-17T20:18:31.355Z,13.93
2018-06-17T20:21:01.091Z,12.63
2018-06-17T20:23:30.765Z,12.23
2018-06-17T20:26:00.463Z,13.70
2018-06-17T20:28:29.968Z,13.23
2018-06-17T20:31:05.925Z,15.73
2018-06-17T20:33:40.706Z,14.00
2018-06-17T20:36:15.427Z,13.70
2018-06-17T20:38:50.622Z,12.93
2018-06-17T20:41:25.372Z,13.90
2018-06-17T20:43:55.516Z,13.70
2018-06-17T20:46:24.786Z,13.20
2018-06-17T20:48:54.310Z,16.50
2018-06-17T20:51:23.988Z,15.10
2018-06-17T20:53:53.714Z,15.60
2018-06-17T20:56:23.405Z,17.00
2018-06-17T20:58:53.099Z,16.70
2018-06-17T21:01:22.884Z,17.90
2018-06-17T21:03:52.170Z,16.60
2018-06-17T21:06:21.724Z,15.87
2018-06-17T21:08:51.428Z,15.27
2018-06-17T21:11:21.041Z,15.40
2018-06-17T21:13:50.581Z,19.00
2018-06-17T21:16:20.257Z,15.87
2018-06-17T21:18:55.188Z,15.53
2018-06-17T21:21:30.322Z,14.00
2018-06-17T21:24:04.942Z,13.37
2018-06-17T21:26:40.039Z,14.43
2018-06-17T21:29:11.196Z,14.70
2018-06-17T21:31:40.790Z,13.90
2018-06-17T21:34:10.907Z,12.90
2018-06-17T21:36:40.086Z,14.50
2018-06-17T21:39:10.653Z,12.33
2018-06-17T21:41:40.407Z,11.70
2018-06-17T21:44:11.439Z,12.00
2018-06-17T21:46:41.044Z,13.13
2018-06-17T21:49:10.580Z,13.03
2018-06-17T21:51:40.322Z,13.50
2018-06-17T21:54:10.902Z,13.97
2018-06-17T21:56:40.920Z,13.20
2018-06-17T21:59:10.476Z,14.00
2018-06-17T22:01:39.632Z,14.87
2018-06-17T22:04:14.416Z,12.87
2018-06-17T22:06:43.990Z,13.50
2018-06-17T22:09:18.930Z,13.17
2018-06-17T22:11:53.740Z,14.10
2018-06-17T22:14:29.732Z,13.33
2018-06-17T22:17:04.708Z,12.67
2018-06-17T22:19:34.537Z,12.10
2018-06-17T22:22:06.478Z,11.30
2018-06-17T22:24:37.792Z,12.40
2018-06-17T22:27:07.354Z,12.13
2018-06-17T22:29:38.022Z,11.40
2018-06-17T22:32:07.795Z,11.40
2018-06-17T22:34:37.930Z,12.90
2018-06-17T22:37:08.037Z,13.03
2018-06-17T22:39:38.353Z,12.80
2018-06-17T22:42:08.569Z,12.53
2018-06-17T22:44:38.284Z,13.80
2018-06-17T22:47:08.088Z,10.60
2018-06-17T22:49:37.742Z,11.67
2018-06-17T22:52:07.367Z,10.87
2018-06-17T22:54:49.251Z,12.07
2018-06-17T22:57:23.998Z,11.07
2018-06-17T22:59:58.785Z,11.40
2018-06-17T23:03:36.068Z,12.70
2018-06-17T23:06:10.888Z,11.93
2018-06-17T23:08:45.673Z,13.20
2018-06-17T23:11:15.454Z,10.77
2018-06-17T23:13:45.396Z,10.83
2018-06-17T23:16:16.119Z,10.60
2018-06-17T23:18:45.895Z,12.43
2018-06-17T23:21:15.773Z,11.43
2018-06-17T23:23:45.421Z,11.43
2018-06-17T23:26:15.192Z,12.47
2018-06-17T23:28:45.168Z,11.47
2018-06-17T23:31:14.722Z,10.90
2018-06-17T23:33:44.275Z,11.47
2018-06-17T23:36:15.088Z,12.10
2018-06-17T23:38:45.644Z,11.37
2018-06-17T23:41:16.225Z,10.40
2018-06-17T23:43:47.302Z,10.90
2018-06-17T23:46:22.193Z,11.40
2018-06-17T23:48:57.084Z,10.60
2018-06-17T23:51:32.420Z,11.77
2018-06-17T23:54:08.160Z,10.97
2018-06-17T23:56:37.979Z,11.50
2018-06-17T23:59:07.512Z,13.17
